sensor_id;sensor_type;location;lat;lon;timestamp;temperature;humidity
23991;DHT22;12205;50.600;4.608;2023-10-19T00:02:10;16.50;99.90
23991;DHT22;12205;50.600;4.608;2023-10-19T00:04:42;16.50;99.90
23991;DHT22;12205;50.600;4.608;2023-10-19T00:07:09;16.50;99.90
23991;DHT22;12205;50.600;4.608;2023-10-19T00:09:42;16.50;99.90
23991;DHT22;12205;50.600;4.608;2023-10-19T00:12:11;16.50;99.90
23991;DHT22;12205;50.600;4.608;2023-10-19T00:14:40;16.50;99.90
23991;DHT22;12205;50.600;4.608;2023-10-19T00:17:08;16.40;99.90
23991;DHT22;12205;50.600;4.608;2023-10-19T00:19:36;16.40;99.90
23991;DHT22;12205;50.600;4.608;2023-10-19T00:22:10;16.40;99.90
23991;DHT22;12205;50.600;4.608;2023-10-19T00:24:41;16.40;99.90
23991;DHT22;12205;50.600;4.608;2023-10-19T00:27:09;16.40;99.90
23991;DHT22;12205;50.600;4.608;2023-10-19T00:29:42;16.40;99.90
23991;DHT22;12205;50.600;4.608;2023-10-19T00:32:15;16.40;99.90
23991;DHT22;12205;50.600;4.608;2023-10-19T00:34:44;16.40;99.90
23991;DHT22;12205;50.600;4.608;2023-10-19T00:37:18;16.40;99.90
23991;DHT22;12205;50.600;4.608;2023-10-19T00:39:52;16.40;99.90
23991;DHT22;12205;50.600;4.608;2023-10-19T00:42:21;16.40;99.90
23991;DHT22;12205;50.600;4.608;2023-10-19T00:44:53;16.40;99.90
23991;DHT22;12205;50.600;4.608;2023-10-19T00:47:30;16.40;99.90
23991;DHT22;12205;50.600;4.608;2023-10-19T00:50:06;16.50;99.90
23991;DHT22;12205;50.600;4.608;2023-10-19T00:52:42;16.40;99.90
23991;DHT22;12205;50.600;4.608;2023-10-19T00:55:15;16.40;99.90
23991;DHT22;12205;50.600;4.608;2023-10-19T00:57:44;16.40;99.90
23991;DHT22;12205;50.600;4.608;2023-10-19T01:00:15;16.40;99.90
23991;DHT22;12205;50.600;4.608;2023-10-19T01:02:56;16.40;99.90
23991;DHT22;12205;50.600;4.608;2023-10-19T01:05:25;16.40;99.90
23991;DHT22;12205;50.600;4.608;2023-10-19T01:07:59;16.40;99.90
23991;DHT22;12205;50.600;4.608;2023-10-19T01:10:29;16.40;99.90
23991;DHT22;12205;50.600;4.608;2023-10-19T01:12:58;16.40;99.90
23991;DHT22;12205;50.600;4.608;2023-10-19T01:15:26;16.30;99.90
23991;DHT22;12205;50.600;4.608;2023-10-19T01:17:58;16.30;99.90
23991;DHT22;12205;50.600;4.608;2023-10-19T01:20:27;16.30;99.90
23991;DHT22;12205;50.600;4.608;2023-10-19T01:23:15;16.30;99.90
23991;DHT22;12205;50.600;4.608;2023-10-19T01:25:53;16.30;99.90
23991;DHT22;12205;50.600;4.608;2023-10-19T01:28:32;16.20;99.90
23991;DHT22;12205;50.600;4.608;2023-10-19T01:31:14;16.20;99.90
23991;DHT22;12205;50.600;4.608;2023-10-19T01:33:48;16.20;99.90
23991;DHT22;12205;50.600;4.608;2023-10-19T01:36:16;16.20;99.90
23991;DHT22;12205;50.600;4.608;2023-10-19T01:38:53;16.20;99.90
23991;DHT22;12205;50.600;4.608;2023-10-19T01:41:22;16.20;99.90
23991;DHT22;12205;50.600;4.608;2023-10-19T01:43:51;16.20;99.90
23991;DHT22;12205;50.600;4.608;2023-10-19T01:46:20;16.20;99.90
23991;DHT22;12205;50.600;4.608;2023-10-19T01:48:51;16.20;99.90
23991;DHT22;12205;50.600;4.608;2023-10-19T01:51:22;16.10;99.90
23991;DHT22;12205;50.600;4.608;2023-10-19T01:53:52;16.10;99.90
23991;DHT22;12205;50.600;4.608;2023-10-19T01:56:18;16.10;99.90
23991;DHT22;12205;50.600;4.608;2023-10-19T01:58:47;16.10;99.90
23991;DHT22;12205;50.600;4.608;2023-10-19T02:01:16;16.00;99.90
23991;DHT22;12205;50.600;4.608;2023-10-19T02:03:55;16.10;99.90
23991;DHT22;12205;50.600;4.608;2023-10-19T02:06:25;16.00;99.90
23991;DHT22;12205;50.600;4.608;2023-10-19T02:08:58;16.00;99.90
23991;DHT22;12205;50.600;4.608;2023-10-19T02:11:27;16.00;99.90
23991;DHT22;12205;50.600;4.608;2023-10-19T02:13:57;16.00;99.90
23991;DHT22;12205;50.600;4.608;2023-10-19T02:16:26;16.00;99.90
23991;DHT22;12205;50.600;4.608;2023-10-19T02:18:55;16.00;99.90
23991;DHT22;12205;50.600;4.608;2023-10-19T02:21:21;16.00;99.90
23991;DHT22;12205;50.600;4.608;2023-10-19T02:23:53;15.90;99.90
23991;DHT22;12205;50.600;4.608;2023-10-19T02:26:21;15.90;99.90
23991;DHT22;12205;50.600;4.608;2023-10-19T02:28:48;15.80;99.90
23991;DHT22;12205;50.600;4.608;2023-10-19T02:31:17;15.80;99.90
23991;DHT22;12205;50.600;4.608;2023-10-19T02:33:45;15.80;99.90
23991;DHT22;12205;50.600;4.608;2023-10-19T02:36:16;15.70;99.90
23991;DHT22;12205;50.600;4.608;2023-10-19T02:38:45;15.60;99.90
23991;DHT22;12205;50.600;4.608;2023-10-19T02:41:17;15.60;99.90
23991;DHT22;12205;50.600;4.608;2023-10-19T02:43:46;15.60;99.90
23991;DHT22;12205;50.600;4.608;2023-10-19T02:46:17;15.50;99.90
23991;DHT22;12205;50.600;4.608;2023-10-19T02:48:43;15.50;99.90
23991;DHT22;12205;50.600;4.608;2023-10-19T02:51:11;15.50;99.90
23991;DHT22;12205;50.600;4.608;2023-10-19T02:53:38;15.40;99.90
23991;DHT22;12205;50.600;4.608;2023-10-19T02:56:10;15.40;99.90
23991;DHT22;12205;50.600;4.608;2023-10-19T02:58:42;15.30;99.90
23991;DHT22;12205;50.600;4.608;2023-10-19T03:01:19;15.30;99.90
23991;DHT22;12205;50.600;4.608;2023-10-19T03:03:51;15.30;99.90
23991;DHT22;12205;50.600;4.608;2023-10-19T03:06:20;15.30;99.90
23991;DHT22;12205;50.600;4.608;2023-10-19T03:08:48;15.30;99.90
23991;DHT22;12205;50.600;4.608;2023-10-19T03:11:18;15.30;99.90
23991;DHT22;12205;50.600;4.608;2023-10-19T03:13:46;15.30;99.90
23991;DHT22;12205;50.600;4.608;2023-10-19T03:16:17;15.30;99.90
23991;DHT22;12205;50.600;4.608;2023-10-19T03:18:45;15.30;99.90
23991;DHT22;12205;50.600;4.608;2023-10-19T03:21:11;15.30;99.90
23991;DHT22;12205;50.600;4.608;2023-10-19T03:23:38;15.30;99.90
23991;DHT22;12205;50.600;4.608;2023-10-19T03:26:06;15.40;99.90
23991;DHT22;12205;50.600;4.608;2023-10-19T03:28:53;15.40;99.90
23991;DHT22;12205;50.600;4.608;2023-10-19T03:31:24;15.40;99.90
23991;DHT22;12205;50.600;4.608;2023-10-19T03:33:51;15.50;99.90
23991;DHT22;12205;50.600;4.608;2023-10-19T03:36:25;15.50;99.90
23991;DHT22;12205;50.600;4.608;2023-10-19T03:38:54;15.50;99.90
23991;DHT22;12205;50.600;4.608;2023-10-19T03:41:26;15.60;99.90
23991;DHT22;12205;50.600;4.608;2023-10-19T03:43:54;15.60;99.90
23991;DHT22;12205;50.600;4.608;2023-10-19T03:46:24;15.60;99.90
23991;DHT22;12205;50.600;4.608;2023-10-19T03:48:56;15.70;99.90
23991;DHT22;12205;50.600;4.608;2023-10-19T03:51:36;15.70;99.90
23991;DHT22;12205;50.600;4.608;2023-10-19T03:54:23;15.80;99.90
23991;DHT22;12205;50.600;4.608;2023-10-19T03:56:51;15.80;99.90
23991;DHT22;12205;50.600;4.608;2023-10-19T03:59:18;15.80;99.90
23991;DHT22;12205;50.600;4.608;2023-10-19T04:01:48;15.80;99.90
23991;DHT22;12205;50.600;4.608;2023-10-19T04:04:16;15.80;99.90
23991;DHT22;12205;50.600;4.608;2023-10-19T04:06:43;15.80;99.90
23991;DHT22;12205;50.600;4.608;2023-10-19T04:09:14;15.80;99.90
23991;DHT22;12205;50.600;4.608;2023-10-19T04:11:43;15.80;99.90
23991;DHT22;12205;50.600;4.608;2023-10-19T04:14:18;15.80;99.90
23991;DHT22;12205;50.600;4.608;2023-10-19T04:16:48;15.90;99.90
23991;DHT22;12205;50.600;4.608;2023-10-19T04:19:15;15.90;99.90
23991;DHT22;12205;50.600;4.608;2023-10-19T04:21:43;15.90;99.90
23991;DHT22;12205;50.600;4.608;2023-10-19T04:24:12;15.90;99.90
23991;DHT22;12205;50.600;4.608;2023-10-19T04:26:40;15.90;99.90
23991;DHT22;12205;50.600;4.608;2023-10-19T04:29:08;15.90;99.90
23991;DHT22;12205;50.600;4.608;2023-10-19T04:31:37;15.90;99.90
23991;DHT22;12205;50.600;4.608;2023-10-19T04:34:10;16.00;99.90
23991;DHT22;12205;50.600;4.608;2023-10-19T04:36:37;15.90;99.90
23991;DHT22;12205;50.600;4.608;2023-10-19T04:39:05;16.00;99.90
23991;DHT22;12205;50.600;4.608;2023-10-19T04:41:37;16.00;99.90
23991;DHT22;12205;50.600;4.608;2023-10-19T04:44:04;16.00;99.90
23991;DHT22;12205;50.600;4.608;2023-10-19T04:46:34;16.00;99.90
23991;DHT22;12205;50.600;4.608;2023-10-19T04:49:01;16.10;99.90
23991;DHT22;12205;50.600;4.608;2023-10-19T04:51:30;16.10;99.90
23991;DHT22;12205;50.600;4.608;2023-10-19T04:53:59;16.10;99.90
23991;DHT22;12205;50.600;4.608;2023-10-19T04:56:26;16.10;99.90
23991;DHT22;12205;50.600;4.608;2023-10-19T04:58:53;16.10;99.90
23991;DHT22;12205;50.600;4.608;2023-10-19T05:01:20;16.10;99.90
23991;DHT22;12205;50.600;4.608;2023-10-19T05:03:47;16.10;99.90
23991;DHT22;12205;50.600;4.608;2023-10-19T05:06:14;16.10;99.90
23991;DHT22;12205;50.600;4.608;2023-10-19T05:08:43;16.10;99.90
23991;DHT22;12205;50.600;4.608;2023-10-19T05:11:12;16.10;99.90
23991;DHT22;12205;50.600;4.608;2023-10-19T05:13:39;16.10;99.90
23991;DHT22;12205;50.600;4.608;2023-10-19T05:16:06;16.10;99.90
23991;DHT22;12205;50.600;4.608;2023-10-19T05:18:34;16.10;99.90
23991;DHT22;12205;50.600;4.608;2023-10-19T05:21:01;16.20;99.90
23991;DHT22;12205;50.600;4.608;2023-10-19T05:23:28;16.20;99.90
23991;DHT22;12205;50.600;4.608;2023-10-19T05:26:02;16.20;99.90
23991;DHT22;12205;50.600;4.608;2023-10-19T05:28:32;16.20;99.90
23991;DHT22;12205;50.600;4.608;2023-10-19T05:30:59;16.20;99.90
23991;DHT22;12205;50.600;4.608;2023-10-19T05:33:27;16.20;99.90
23991;DHT22;12205;50.600;4.608;2023-10-19T05:35:55;16.20;99.90
23991;DHT22;12205;50.600;4.608;2023-10-19T05:38:22;16.20;99.90
23991;DHT22;12205;50.600;4.608;2023-10-19T05:40:49;16.20;99.90
23991;DHT22;12205;50.600;4.608;2023-10-19T05:43:19;16.10;99.90
23991;DHT22;12205;50.600;4.608;2023-10-19T05:45:46;16.10;99.90
23991;DHT22;12205;50.600;4.608;2023-10-19T05:48:15;16.00;99.90
23991;DHT22;12205;50.600;4.608;2023-10-19T05:50:42;16.00;99.90
23991;DHT22;12205;50.600;4.608;2023-10-19T05:53:10;16.00;99.90
23991;DHT22;12205;50.600;4.608;2023-10-19T05:55:37;16.00;99.90
23991;DHT22;12205;50.600;4.608;2023-10-19T05:58:05;16.00;99.90
23991;DHT22;12205;50.600;4.608;2023-10-19T06:00:33;16.00;99.90
23991;DHT22;12205;50.600;4.608;2023-10-19T06:03:01;16.00;99.90
23991;DHT22;12205;50.600;4.608;2023-10-19T06:05:30;16.00;99.90
23991;DHT22;12205;50.600;4.608;2023-10-19T06:07:57;16.00;99.90
23991;DHT22;12205;50.600;4.608;2023-10-19T06:10:26;16.00;99.90
23991;DHT22;12205;50.600;4.608;2023-10-19T06:12:55;16.00;99.90
23991;DHT22;12205;50.600;4.608;2023-10-19T06:15:24;16.00;99.90
23991;DHT22;12205;50.600;4.608;2023-10-19T06:17:52;16.00;99.90
23991;DHT22;12205;50.600;4.608;2023-10-19T06:20:20;16.00;99.90
23991;DHT22;12205;50.600;4.608;2023-10-19T06:22:50;16.00;99.90
23991;DHT22;12205;50.600;4.608;2023-10-19T06:25:18;16.00;99.90
23991;DHT22;12205;50.600;4.608;2023-10-19T06:27:47;15.90;99.90
23991;DHT22;12205;50.600;4.608;2023-10-19T06:30:16;15.90;99.90
23991;DHT22;12205;50.600;4.608;2023-10-19T06:32:46;15.90;99.90
23991;DHT22;12205;50.600;4.608;2023-10-19T06:35:16;15.90;99.90
23991;DHT22;12205;50.600;4.608;2023-10-19T06:37:44;15.80;99.90
23991;DHT22;12205;50.600;4.608;2023-10-19T06:40:12;15.80;99.90
23991;DHT22;12205;50.600;4.608;2023-10-19T06:42:40;15.80;99.90
23991;DHT22;12205;50.600;4.608;2023-10-19T06:45:09;15.80;99.90
23991;DHT22;12205;50.600;4.608;2023-10-19T06:47:40;15.70;99.90
23991;DHT22;12205;50.600;4.608;2023-10-19T06:50:09;15.70;99.90
23991;DHT22;12205;50.600;4.608;2023-10-19T06:52:38;15.70;99.90
23991;DHT22;12205;50.600;4.608;2023-10-19T06:55:07;15.70;99.90
23991;DHT22;12205;50.600;4.608;2023-10-19T06:57:40;15.80;99.90
23991;DHT22;12205;50.600;4.608;2023-10-19T07:00:10;15.80;99.90
23991;DHT22;12205;50.600;4.608;2023-10-19T07:02:42;15.90;99.90
23991;DHT22;12205;50.600;4.608;2023-10-19T07:05:10;15.90;99.90
23991;DHT22;12205;50.600;4.608;2023-10-19T07:07:40;15.90;99.90
23991;DHT22;12205;50.600;4.608;2023-10-19T07:10:08;16.00;99.90
23991;DHT22;12205;50.600;4.608;2023-10-19T07:12:38;16.00;99.90
23991;DHT22;12205;50.600;4.608;2023-10-19T07:15:07;16.00;99.90
23991;DHT22;12205;50.600;4.608;2023-10-19T07:17:39;16.00;99.90
23991;DHT22;12205;50.600;4.608;2023-10-19T07:20:08;16.00;99.90
23991;DHT22;12205;50.600;4.608;2023-10-19T07:22:49;16.00;99.90
23991;DHT22;12205;50.600;4.608;2023-10-19T07:25:16;16.10;99.90
23991;DHT22;12205;50.600;4.608;2023-10-19T07:27:46;16.10;99.90
23991;DHT22;12205;50.600;4.608;2023-10-19T07:30:14;16.20;99.90
23991;DHT22;12205;50.600;4.608;2023-10-19T07:32:47;16.20;99.90
23991;DHT22;12205;50.600;4.608;2023-10-19T07:35:17;16.20;99.90
23991;DHT22;12205;50.600;4.608;2023-10-19T07:37:45;16.30;99.90
23991;DHT22;12205;50.600;4.608;2023-10-19T07:40:15;16.40;99.90
23991;DHT22;12205;50.600;4.608;2023-10-19T07:42:43;16.40;99.90
23991;DHT22;12205;50.600;4.608;2023-10-19T07:45:11;16.50;99.90
23991;DHT22;12205;50.600;4.608;2023-10-19T07:47:38;16.50;99.90
23991;DHT22;12205;50.600;4.608;2023-10-19T07:50:07;16.60;99.90
23991;DHT22;12205;50.600;4.608;2023-10-19T07:52:41;16.60;99.90
23991;DHT22;12205;50.600;4.608;2023-10-19T07:55:09;16.70;99.90
23991;DHT22;12205;50.600;4.608;2023-10-19T07:57:38;16.80;99.90
23991;DHT22;12205;50.600;4.608;2023-10-19T08:00:07;16.80;99.90
23991;DHT22;12205;50.600;4.608;2023-10-19T08:02:36;16.80;99.90
23991;DHT22;12205;50.600;4.608;2023-10-19T08:05:04;16.90;99.90
23991;DHT22;12205;50.600;4.608;2023-10-19T08:07:33;17.00;99.90
23991;DHT22;12205;50.600;4.608;2023-10-19T08:10:02;17.00;99.90
23991;DHT22;12205;50.600;4.608;2023-10-19T08:12:31;17.10;99.90
23991;DHT22;12205;50.600;4.608;2023-10-19T08:15:01;17.10;99.90
23991;DHT22;12205;50.600;4.608;2023-10-19T08:17:28;17.20;99.90
23991;DHT22;12205;50.600;4.608;2023-10-19T08:19:55;17.20;99.90
23991;DHT22;12205;50.600;4.608;2023-10-19T08:22:23;17.20;99.90
23991;DHT22;12205;50.600;4.608;2023-10-19T08:24:52;17.30;99.90
23991;DHT22;12205;50.600;4.608;2023-10-19T08:27:20;17.40;99.90
23991;DHT22;12205;50.600;4.608;2023-10-19T08:29:49;17.40;99.90
23991;DHT22;12205;50.600;4.608;2023-10-19T08:32:18;17.50;99.90
23991;DHT22;12205;50.600;4.608;2023-10-19T08:34:46;17.50;99.90
23991;DHT22;12205;50.600;4.608;2023-10-19T08:37:13;17.60;99.90
23991;DHT22;12205;50.600;4.608;2023-10-19T08:39:40;17.70;99.90
23991;DHT22;12205;50.600;4.608;2023-10-19T08:42:09;17.70;99.90
23991;DHT22;12205;50.600;4.608;2023-10-19T08:44:37;17.80;99.90
23991;DHT22;12205;50.600;4.608;2023-10-19T08:47:04;17.80;99.90
23991;DHT22;12205;50.600;4.608;2023-10-19T08:49:33;17.80;99.90
23991;DHT22;12205;50.600;4.608;2023-10-19T08:52:00;17.90;99.90
23991;DHT22;12205;50.600;4.608;2023-10-19T08:54:30;17.90;99.90
23991;DHT22;12205;50.600;4.608;2023-10-19T08:56:59;17.90;99.90
23991;DHT22;12205;50.600;4.608;2023-10-19T08:59:28;18.00;99.90
23991;DHT22;12205;50.600;4.608;2023-10-19T09:02:00;17.90;99.90
23991;DHT22;12205;50.600;4.608;2023-10-19T09:04:28;18.00;99.90
23991;DHT22;12205;50.600;4.608;2023-10-19T09:06:57;18.00;99.90
23991;DHT22;12205;50.600;4.608;2023-10-19T09:09:28;18.10;99.90
23991;DHT22;12205;50.600;4.608;2023-10-19T09:11:58;18.10;99.90
23991;DHT22;12205;50.600;4.608;2023-10-19T09:14:32;18.20;99.90
23991;DHT22;12205;50.600;4.608;2023-10-19T09:17:02;18.20;99.90
23991;DHT22;12205;50.600;4.608;2023-10-19T09:19:37;18.30;99.90
23991;DHT22;12205;50.600;4.608;2023-10-19T09:22:09;18.40;99.90
23991;DHT22;12205;50.600;4.608;2023-10-19T09:24:44;18.50;99.90
23991;DHT22;12205;50.600;4.608;2023-10-19T09:27:12;18.60;99.90
23991;DHT22;12205;50.600;4.608;2023-10-19T09:29:40;18.70;99.90
23991;DHT22;12205;50.600;4.608;2023-10-19T09:32:07;18.90;99.90
23991;DHT22;12205;50.600;4.608;2023-10-19T09:34:36;18.90;99.90
23991;DHT22;12205;50.600;4.608;2023-10-19T09:37:04;19.00;99.90
23991;DHT22;12205;50.600;4.608;2023-10-19T09:39:33;19.10;99.90
23991;DHT22;12205;50.600;4.608;2023-10-19T09:42:06;19.10;99.90
23991;DHT22;12205;50.600;4.608;2023-10-19T09:44:41;19.20;99.90
23991;DHT22;12205;50.600;4.608;2023-10-19T09:47:11;19.30;99.90
23991;DHT22;12205;50.600;4.608;2023-10-19T09:49:41;19.40;99.90
23991;DHT22;12205;50.600;4.608;2023-10-19T09:52:10;19.50;99.90
23991;DHT22;12205;50.600;4.608;2023-10-19T09:54:50;19.60;99.90
23991;DHT22;12205;50.600;4.608;2023-10-19T09:57:43;19.70;99.90
23991;DHT22;12205;50.600;4.608;2023-10-19T10:00:17;19.80;99.90
23991;DHT22;12205;50.600;4.608;2023-10-19T10:02:49;19.90;99.90
23991;DHT22;12205;50.600;4.608;2023-10-19T10:05:45;20.00;99.90
23991;DHT22;12205;50.600;4.608;2023-10-19T10:08:31;20.20;99.90
23991;DHT22;12205;50.600;4.608;2023-10-19T10:11:21;20.20;99.90
23991;DHT22;12205;50.600;4.608;2023-10-19T10:13:52;20.20;99.90
23991;DHT22;12205;50.600;4.608;2023-10-19T10:16:23;20.20;99.90
23991;DHT22;12205;50.600;4.608;2023-10-19T10:18:53;20.20;99.90
23991;DHT22;12205;50.600;4.608;2023-10-19T10:21:24;20.10;99.90
23991;DHT22;12205;50.600;4.608;2023-10-19T10:23:53;20.00;99.90
23991;DHT22;12205;50.600;4.608;2023-10-19T10:26:24;19.90;99.90
23991;DHT22;12205;50.600;4.608;2023-10-19T10:29:10;19.80;99.90
23991;DHT22;12205;50.600;4.608;2023-10-19T10:31:44;19.70;99.90
23991;DHT22;12205;50.600;4.608;2023-10-19T10:34:41;19.60;99.90
23991;DHT22;12205;50.600;4.608;2023-10-19T10:37:11;19.50;99.90
23991;DHT22;12205;50.600;4.608;2023-10-19T10:39:40;19.40;99.90
23991;DHT22;12205;50.600;4.608;2023-10-19T10:42:11;19.30;99.90
23991;DHT22;12205;50.600;4.608;2023-10-19T10:44:40;19.30;99.90
23991;DHT22;12205;50.600;4.608;2023-10-19T10:47:09;19.10;99.90
23991;DHT22;12205;50.600;4.608;2023-10-19T10:49:51;19.10;99.90
23991;DHT22;12205;50.600;4.608;2023-10-19T10:52:24;19.10;99.90
23991;DHT22;12205;50.600;4.608;2023-10-19T10:54:52;19.00;99.90
23991;DHT22;12205;50.600;4.608;2023-10-19T10:57:23;18.90;99.90
23991;DHT22;12205;50.600;4.608;2023-10-19T11:00:04;18.90;99.90
23991;DHT22;12205;50.600;4.608;2023-10-19T11:02:34;19.00;99.90
23991;DHT22;12205;50.600;4.608;2023-10-19T11:05:02;19.10;99.90
23991;DHT22;12205;50.600;4.608;2023-10-19T11:07:30;19.10;99.90
23991;DHT22;12205;50.600;4.608;2023-10-19T11:09:57;19.10;99.90
23991;DHT22;12205;50.600;4.608;2023-10-19T11:12:26;19.10;99.90
23991;DHT22;12205;50.600;4.608;2023-10-19T11:14:54;19.10;99.90
23991;DHT22;12205;50.600;4.608;2023-10-19T11:17:23;19.20;99.90
23991;DHT22;12205;50.600;4.608;2023-10-19T11:19:54;19.20;99.90
23991;DHT22;12205;50.600;4.608;2023-10-19T11:22:23;19.20;99.90
23991;DHT22;12205;50.600;4.608;2023-10-19T11:24:52;19.20;99.90
23991;DHT22;12205;50.600;4.608;2023-10-19T11:27:28;19.10;99.90
23991;DHT22;12205;50.600;4.608;2023-10-19T11:29:56;19.10;99.90
23991;DHT22;12205;50.600;4.608;2023-10-19T11:32:24;19.10;99.90
23991;DHT22;12205;50.600;4.608;2023-10-19T11:34:53;19.00;99.90
23991;DHT22;12205;50.600;4.608;2023-10-19T11:37:21;18.90;99.90
23991;DHT22;12205;50.600;4.608;2023-10-19T11:39:48;18.80;99.90
23991;DHT22;12205;50.600;4.608;2023-10-19T11:42:17;18.70;99.90
23991;DHT22;12205;50.600;4.608;2023-10-19T11:44:46;18.60;99.90
23991;DHT22;12205;50.600;4.608;2023-10-19T11:47:14;18.40;99.90
23991;DHT22;12205;50.600;4.608;2023-10-19T11:49:41;18.30;99.90
23991;DHT22;12205;50.600;4.608;2023-10-19T11:52:08;18.20;99.90
23991;DHT22;12205;50.600;4.608;2023-10-19T11:54:35;18.10;99.90
23991;DHT22;12205;50.600;4.608;2023-10-19T11:57:02;18.00;99.90
23991;DHT22;12205;50.600;4.608;2023-10-19T11:59:29;17.90;99.90
23991;DHT22;12205;50.600;4.608;2023-10-19T12:01:58;17.80;99.90
23991;DHT22;12205;50.600;4.608;2023-10-19T12:04:26;17.70;99.90
23991;DHT22;12205;50.600;4.608;2023-10-19T12:06:53;17.70;99.90
23991;DHT22;12205;50.600;4.608;2023-10-19T12:09:21;17.60;99.90
23991;DHT22;12205;50.600;4.608;2023-10-19T12:11:50;17.60;99.90
23991;DHT22;12205;50.600;4.608;2023-10-19T12:14:20;17.50;99.90
23991;DHT22;12205;50.600;4.608;2023-10-19T12:16:47;17.50;99.90
23991;DHT22;12205;50.600;4.608;2023-10-19T12:19:15;17.50;99.90
23991;DHT22;12205;50.600;4.608;2023-10-19T12:21:50;17.50;99.90
23991;DHT22;12205;50.600;4.608;2023-10-19T12:24:17;17.50;99.90
23991;DHT22;12205;50.600;4.608;2023-10-19T12:26:46;17.60;99.90
23991;DHT22;12205;50.600;4.608;2023-10-19T12:29:13;17.90;99.90
23991;DHT22;12205;50.600;4.608;2023-10-19T12:31:43;18.10;99.90
23991;DHT22;12205;50.600;4.608;2023-10-19T12:34:10;18.40;99.90
23991;DHT22;12205;50.600;4.608;2023-10-19T12:36:38;18.70;99.90
23991;DHT22;12205;50.600;4.608;2023-10-19T12:39:06;19.00;99.90
23991;DHT22;12205;50.600;4.608;2023-10-19T12:41:35;19.60;99.90
23991;DHT22;12205;50.600;4.608;2023-10-19T12:44:04;20.30;99.90
23991;DHT22;12205;50.600;4.608;2023-10-19T12:46:34;20.90;99.90
23991;DHT22;12205;50.600;4.608;2023-10-19T12:49:04;22.60;99.90
23991;DHT22;12205;50.600;4.608;2023-10-19T12:51:34;24.10;99.90
23991;DHT22;12205;50.600;4.608;2023-10-19T12:54:02;25.50;99.90
23991;DHT22;12205;50.600;4.608;2023-10-19T12:56:30;26.60;99.90
23991;DHT22;12205;50.600;4.608;2023-10-19T12:58:58;27.90;99.90
23991;DHT22;12205;50.600;4.608;2023-10-19T13:01:26;28.70;99.90
23991;DHT22;12205;50.600;4.608;2023-10-19T13:03:53;29.40;99.90
23991;DHT22;12205;50.600;4.608;2023-10-19T13:06:21;29.80;99.90
23991;DHT22;12205;50.600;4.608;2023-10-19T13:08:49;30.40;99.90
23991;DHT22;12205;50.600;4.608;2023-10-19T13:11:18;30.70;99.90
23991;DHT22;12205;50.600;4.608;2023-10-19T13:13:45;31.50;99.90
23991;DHT22;12205;50.600;4.608;2023-10-19T13:16:12;31.70;99.90
23991;DHT22;12205;50.600;4.608;2023-10-19T13:18:39;31.10;99.90
23991;DHT22;12205;50.600;4.608;2023-10-19T13:21:07;31.00;99.90
23991;DHT22;12205;50.600;4.608;2023-10-19T13:23:37;30.70;99.90
23991;DHT22;12205;50.600;4.608;2023-10-19T13:26:04;31.20;99.90
23991;DHT22;12205;50.600;4.608;2023-10-19T13:28:45;31.10;99.90
23991;DHT22;12205;50.600;4.608;2023-10-19T13:31:14;31.30;99.90
23991;DHT22;12205;50.600;4.608;2023-10-19T13:33:41;30.70;99.90
23991;DHT22;12205;50.600;4.608;2023-10-19T13:36:09;29.90;99.90
23991;DHT22;12205;50.600;4.608;2023-10-19T13:38:36;28.80;99.90
23991;DHT22;12205;50.600;4.608;2023-10-19T13:41:04;27.70;99.90
23991;DHT22;12205;50.600;4.608;2023-10-19T13:43:35;26.70;99.90
23991;DHT22;12205;50.600;4.608;2023-10-19T13:46:03;26.20;99.90
23991;DHT22;12205;50.600;4.608;2023-10-19T13:48:31;26.70;99.90
23991;DHT22;12205;50.600;4.608;2023-10-19T13:50:59;27.80;99.90
23991;DHT22;12205;50.600;4.608;2023-10-19T13:53:31;29.10;99.90
23991;DHT22;12205;50.600;4.608;2023-10-19T13:55:59;30.10;99.90
23991;DHT22;12205;50.600;4.608;2023-10-19T13:58:26;30.80;99.90
23991;DHT22;12205;50.600;4.608;2023-10-19T14:00:53;31.60;99.90
23991;DHT22;12205;50.600;4.608;2023-10-19T14:03:22;32.00;99.90
23991;DHT22;12205;50.600;4.608;2023-10-19T14:05:49;32.70;99.90
23991;DHT22;12205;50.600;4.608;2023-10-19T14:08:19;33.00;99.90
23991;DHT22;12205;50.600;4.608;2023-10-19T14:10:46;32.90;99.90
23991;DHT22;12205;50.600;4.608;2023-10-19T14:13:14;32.70;99.90
23991;DHT22;12205;50.600;4.608;2023-10-19T14:15:41;32.20;99.90
23991;DHT22;12205;50.600;4.608;2023-10-19T14:18:09;32.70;99.90
23991;DHT22;12205;50.600;4.608;2023-10-19T14:20:38;33.20;99.90
23991;DHT22;12205;50.600;4.608;2023-10-19T14:23:06;33.50;99.90
23991;DHT22;12205;50.600;4.608;2023-10-19T14:25:36;33.80;99.90
23991;DHT22;12205;50.600;4.608;2023-10-19T14:28:05;34.00;99.90
23991;DHT22;12205;50.600;4.608;2023-10-19T14:30:33;34.20;99.90
23991;DHT22;12205;50.600;4.608;2023-10-19T14:33:01;33.30;99.90
23991;DHT22;12205;50.600;4.608;2023-10-19T14:35:29;32.30;99.90
23991;DHT22;12205;50.600;4.608;2023-10-19T14:37:59;31.20;99.90
23991;DHT22;12205;50.600;4.608;2023-10-19T14:40:27;30.20;99.90
23991;DHT22;12205;50.600;4.608;2023-10-19T14:42:55;29.10;99.90
23991;DHT22;12205;50.600;4.608;2023-10-19T14:45:25;28.20;99.90
23991;DHT22;12205;50.600;4.608;2023-10-19T14:47:54;27.40;99.90
23991;DHT22;12205;50.600;4.608;2023-10-19T14:50:24;26.60;99.90
23991;DHT22;12205;50.600;4.608;2023-10-19T14:52:53;25.90;99.90
23991;DHT22;12205;50.600;4.608;2023-10-19T14:55:22;25.30;99.90
23991;DHT22;12205;50.600;4.608;2023-10-19T14:57:51;24.80;99.90
23991;DHT22;12205;50.600;4.608;2023-10-19T15:00:20;24.40;99.90
23991;DHT22;12205;50.600;4.608;2023-10-19T15:02:58;23.90;99.90
23991;DHT22;12205;50.600;4.608;2023-10-19T15:05:27;23.50;99.90
23991;DHT22;12205;50.600;4.608;2023-10-19T15:07:55;23.10;99.90
23991;DHT22;12205;50.600;4.608;2023-10-19T15:10:25;22.80;99.90
23991;DHT22;12205;50.600;4.608;2023-10-19T15:12:54;22.50;99.90
23991;DHT22;12205;50.600;4.608;2023-10-19T15:15:22;22.30;99.90
23991;DHT22;12205;50.600;4.608;2023-10-19T15:17:49;22.00;99.90
23991;DHT22;12205;50.600;4.608;2023-10-19T15:20:20;21.70;99.90
23991;DHT22;12205;50.600;4.608;2023-10-19T15:22:48;21.50;99.90
23991;DHT22;12205;50.600;4.608;2023-10-19T15:25:15;21.20;99.90
23991;DHT22;12205;50.600;4.608;2023-10-19T15:27:47;21.00;99.90
23991;DHT22;12205;50.600;4.608;2023-10-19T15:30:15;20.80;99.90
23991;DHT22;12205;50.600;4.608;2023-10-19T15:32:44;20.70;99.90
23991;DHT22;12205;50.600;4.608;2023-10-19T15:35:12;20.60;99.90
23991;DHT22;12205;50.600;4.608;2023-10-19T15:37:41;20.60;99.90
23991;DHT22;12205;50.600;4.608;2023-10-19T15:40:13;20.50;99.90
23991;DHT22;12205;50.600;4.608;2023-10-19T15:42:42;20.50;99.90
23991;DHT22;12205;50.600;4.608;2023-10-19T15:45:11;20.60;99.90
23991;DHT22;12205;50.600;4.608;2023-10-19T15:47:40;20.60;99.90